Time;durP1;ratioP1;P1;durP2;ratioP2;P2;SDS_P1;SDS_P2;PMS_P1;PMS_P2;Temp;Humidity;BMP_temperature;BMP_pressure;BME280_temperature;BME280_humidity;BME280_pressure;Samples;Min_cycle;Max_cycle;Signal;HPM_P1;HPM_P2
2022/06/30 00:00:46;;;;;;;8.25;5.30;;;;;;;28.63;42.12;101099.97;5048874;28;20048;-78
2022/06/30 00:03:12;;;;;;;8.68;5.15;;;;;;;28.71;42.00;101099.53;5046398;28;20036;-78
2022/06/30 00:05:37;;;;;;;6.82;4.82;;;;;;;28.71;41.63;101095.97;5047364;28;20028;-78
2022/06/30 00:08:03;;;;;;;6.40;4.80;;;;;;;28.67;41.65;101097.13;5046449;28;20119;-78
2022/06/30 00:10:29;;;;;;;6.93;5.03;;;;;;;28.65;41.81;101087.34;5048868;28;20056;-78
2022/06/30 00:12:55;;;;;;;8.35;5.15;;;;;;;28.60;42.31;101094.81;5048926;28;20021;-78
2022/06/30 00:15:20;;;;;;;7.78;5.07;;;;;;;28.61;41.81;101092.94;5048381;28;20029;-78
2022/06/30 00:17:46;;;;;;;7.60;4.85;;;;;;;28.59;41.88;101097.56;5048230;28;20043;-78
2022/06/30 00:20:12;;;;;;;6.70;4.90;;;;;;;28.62;42.25;101087.50;5048873;28;20037;-77
2022/06/30 00:22:37;;;;;;;7.53;5.20;;;;;;;28.59;42.02;101092.19;5047414;28;20175;-77
2022/06/30 00:25:03;;;;;;;6.35;4.68;;;;;;;28.57;42.32;101092.28;5046582;28;20029;-77
2022/06/30 00:27:28;;;;;;;7.20;4.95;;;;;;;28.55;42.20;101086.13;5048175;28;20032;-78
2022/06/30 00:29:53;;;;;;;7.50;5.00;;;;;;;28.57;41.92;101080.69;5048385;28;20639;-78
2022/06/30 00:32:19;;;;;;;10.73;4.90;;;;;;;28.58;41.83;101083.28;5048406;28;20056;-78
2022/06/30 00:34:44;;;;;;;7.35;4.95;;;;;;;28.57;42.31;101083.38;5049211;28;20094;-78
2022/06/30 00:37:09;;;;;;;7.25;4.70;;;;;;;28.58;41.71;101085.97;5051652;28;20040;-78
2022/06/30 00:39:35;;;;;;;7.03;4.70;;;;;;;28.54;42.36;101079.06;5052586;28;20539;-78
2022/06/30 00:42:01;;;;;;;5.82;4.72;;;;;;;28.55;41.92;101079.91;5052300;28;20123;-78
2022/06/30 00:44:27;;;;;;;6.00;4.53;;;;;;;28.54;42.02;101080.88;5051328;28;20036;-78
2022/06/30 00:46:53;;;;;;;6.47;4.40;;;;;;;28.56;42.13;101084.31;5051727;28;20120;-77
2022/06/30 00:49:20;;;;;;;6.60;4.68;;;;;;;28.54;42.16;101086.25;5050880;28;20049;-78
2022/06/30 00:51:46;;;;;;;5.95;4.78;;;;;;;28.60;41.88;101091.25;5034480;28;20485;-78
2022/06/30 00:54:12;;;;;;;6.60;4.50;;;;;;;28.62;41.80;101086.63;5046926;28;20051;-78
2022/06/30 00:56:41;;;;;;;7.78;4.80;;;;;;;28.61;41.63;101091.13;5050978;28;20040;-77
2022/06/30 00:59:09;;;;;;;6.43;4.38;;;;;;;28.59;41.70;101086.84;5051559;28;20024;-78
2022/06/30 01:01:36;;;;;;;6.65;4.63;;;;;;;28.56;42.03;101095.91;5050975;28;20041;-78
2022/06/30 01:04:02;;;;;;;6.97;4.47;;;;;;;28.58;42.09;101093.16;5052065;28;20036;-78
2022/06/30 01:06:29;;;;;;;6.88;4.43;;;;;;;28.61;41.89;101082.22;5051239;28;20041;-78
2022/06/30 01:08:54;;;;;;;6.00;4.72;;;;;;;28.53;41.92;101084.50;5045934;28;20495;-77
2022/06/30 01:14:03;;;;;;;6.93;4.72;;;;;;;28.58;41.81;101087.78;5052100;28;20047;-78
2022/06/30 01:16:29;;;;;;;5.80;4.35;;;;;;;28.59;41.95;101086.84;5050111;28;20033;-78
2022/06/30 01:18:55;;;;;;;5.85;4.18;;;;;;;28.55;42.03;101090.63;5050225;28;22154;-78
2022/06/30 01:21:20;;;;;;;5.53;4.50;;;;;;;28.54;41.73;101080.88;5052197;28;20455;-78
2022/06/30 01:23:46;;;;;;;6.13;4.75;;;;;;;28.50;42.05;101068.56;5050414;28;20037;-77
2022/06/30 01:26:12;;;;;;;6.85;4.53;;;;;;;28.54;41.83;101087.09;5051680;28;20059;-77
2022/06/30 01:28:37;;;;;;;5.90;4.50;;;;;;;28.58;41.70;101085.97;5051553;28;20107;-78
2022/06/30 01:31:03;;;;;;;6.20;4.47;;;;;;;28.56;42.13;101081.63;5049561;28;20075;-78
2022/06/30 01:33:28;;;;;;;5.53;4.28;;;;;;;28.54;41.74;101076.38;5051567;28;20029;-77
2022/06/30 01:35:56;;;;;;;8.00;4.70;;;;;;;28.57;41.81;101076.19;5050342;28;20029;-78
2022/06/30 01:38:21;;;;;;;5.30;3.83;;;;;;;28.54;42.03;101072.81;5051540;28;20028;-77
2022/06/30 01:40:48;;;;;;;5.57;4.10;;;;;;;28.53;42.16;101073.78;5051487;28;20467;-77
2022/06/30 01:43:14;;;;;;;6.70;4.53;;;;;;;28.53;41.97;101079.13;5040805;28;20474;-78
2022/06/30 01:45:40;;;;;;;6.03;4.07;;;;;;;28.52;41.66;101070.22;5049716;28;20041;-78
2022/06/30 01:48:07;;;;;;;5.82;4.60;;;;;;;28.53;42.04;101073.78;5044656;28;20037;-78
2022/06/30 01:50:33;;;;;;;5.68;4.30;;;;;;;28.53;42.10;101071.97;5051305;28;20625;-77
2022/06/30 01:52:59;;;;;;;5.10;4.07;;;;;;;28.48;41.91;101070.50;5049565;28;20059;-78
2022/06/30 01:55:25;;;;;;;6.28;4.45;;;;;;;28.49;41.75;101061.47;5049589;28;20108;-78
2022/06/30 01:57:54;;;;;;;6.25;4.25;;;;;;;28.47;41.94;101064.28;5050844;28;20029;-78
2022/06/30 02:00:23;;;;;;;5.88;4.07;;;;;;;28.44;42.01;101071.59;5049057;28;20055;-77
2022/06/30 02:02:50;;;;;;;6.93;4.32;;;;;;;28.44;42.10;101061.75;5051058;28;20033;-78
2022/06/30 02:05:16;;;;;;;5.65;4.20;;;;;;;28.43;41.83;101056.47;5050766;28;20107;-77
2022/06/30 02:07:41;;;;;;;4.85;4.10;;;;;;;28.42;42.22;101062.81;5049029;28;20111;-78
2022/06/30 02:10:10;;;;;;;5.85;4.43;;;;;;;28.44;41.82;101056.38;5050474;28;20039;-77
2022/06/30 02:12:45;;;;;;;6.47;4.20;;;;;;;28.44;42.03;101050.16;5049624;28;20033;-78
2022/06/30 02:15:11;;;;;;;4.93;4.00;;;;;;;28.45;42.05;101051.88;5050574;28;20624;-78
2022/06/30 02:17:37;;;;;;;5.45;3.92;;;;;;;28.42;41.95;101054.75;5050820;28;20025;-78
2022/06/30 02:20:04;;;;;;;5.68;4.00;;;;;;;28.42;41.94;101050.22;5049981;28;20376;-78
2022/06/30 02:22:29;;;;;;;5.10;4.00;;;;;;;28.43;42.27;101045.75;5050876;28;20033;-78
2022/06/30 02:24:55;;;;;;;6.18;4.05;;;;;;;28.41;42.17;101055.72;5050551;28;20833;-77
2022/06/30 02:27:23;;;;;;;5.93;4.30;;;;;;;28.42;42.00;101047.56;5050577;28;20108;-77
2022/06/30 02:29:49;;;;;;;4.78;3.80;;;;;;;28.39;42.00;101049.56;5049921;28;20033;-78
2022/06/30 02:32:14;;;;;;;6.43;4.00;;;;;;;28.38;41.93;101045.16;5049384;28;20089;-78
2022/06/30 02:34:39;;;;;;;5.85;3.75;;;;;;;28.36;42.16;101044.41;5050336;28;20082;-78
2022/06/30 02:37:05;;;;;;;5.53;4.22;;;;;;;28.36;42.04;101049.75;5050591;28;20021;-78
2022/06/30 02:39:30;;;;;;;5.03;3.80;;;;;;;28.34;41.78;101043.59;5050247;28;20033;-78
2022/06/30 02:41:55;;;;;;;4.97;3.83;;;;;;;28.40;42.18;101043.25;5046811;28;20049;-78
2022/06/30 02:44:21;;;;;;;5.47;4.00;;;;;;;28.36;42.18;101036.34;5049759;28;20524;-78
2022/06/30 02:46:49;;;;;;;5.18;4.03;;;;;;;28.35;42.14;101038.16;5049071;28;20384;-78
2022/06/30 02:49:15;;;;;;;5.07;4.20;;;;;;;28.36;42.04;101039.88;5050210;28;20032;-78
2022/06/30 02:51:41;;;;;;;5.22;3.92;;;;;;;28.35;41.83;101043.53;5050139;28;20498;-78
2022/06/30 02:54:06;;;;;;;5.07;4.20;;;;;;;28.33;41.88;101036.50;5049391;28;20375;-78
2022/06/30 02:56:31;;;;;;;5.18;3.95;;;;;;;28.34;42.11;101032.88;5049832;28;20352;-77
2022/06/30 02:58:57;;;;;;;5.15;3.90;;;;;;;28.36;42.06;101028.31;5047682;28;20134;-78
2022/06/30 03:01:22;;;;;;;4.85;3.80;;;;;;;28.35;41.76;101029.25;5045833;28;20048;-77
2022/06/30 03:03:47;;;;;;;4.82;3.78;;;;;;;28.33;42.03;101028.47;5049242;28;20041;-78
2022/06/30 03:06:13;;;;;;;5.45;3.85;;;;;;;28.31;41.96;101033.03;5045865;28;20033;-78
2022/06/30 03:08:38;;;;;;;5.30;4.00;;;;;;;28.34;42.06;101033.75;5048185;28;20102;-78
2022/06/30 03:11:04;;;;;;;5.40;4.00;;;;;;;28.33;41.59;101032.00;5048285;28;20032;-79
2022/06/30 03:13:29;;;;;;;5.30;3.95;;;;;;;28.33;42.09;101031.16;5048259;28;20480;-77
2022/06/30 03:15:54;;;;;;;6.43;3.85;;;;;;;28.32;41.82;101027.59;5049038;28;20032;-78
2022/06/30 03:18:20;;;;;;;5.40;3.75;;;;;;;28.31;41.88;101031.22;5049594;28;20040;-78
2022/06/30 03:20:45;;;;;;;4.97;3.78;;;;;;;28.30;42.13;101024.13;5048896;28;20033;-77
2022/06/30 03:23:10;;;;;;;4.90;3.80;;;;;;;28.32;42.11;101034.78;5049609;28;20028;-78
2022/06/30 03:25:36;;;;;;;4.70;3.53;;;;;;;28.31;41.98;101038.41;5049624;28;20033;-78
2022/06/30 03:28:02;;;;;;;5.13;3.70;;;;;;;28.28;42.05;101041.28;5048614;28;20064;-78
2022/06/30 03:30:28;;;;;;;5.10;3.53;;;;;;;28.26;42.21;101033.31;5048914;28;20036;-77
2022/06/30 03:32:53;;;;;;;5.10;3.75;;;;;;;28.25;42.18;101034.25;5048994;28;20044;-78
2022/06/30 03:35:18;;;;;;;5.60;4.13;;;;;;;28.28;42.11;101034.09;5049281;28;20025;-77
2022/06/30 03:37:44;;;;;;;4.60;3.58;;;;;;;28.26;42.40;101036.00;5048895;28;20056;-77
2022/06/30 03:40:10;;;;;;;4.63;3.72;;;;;;;28.25;41.88;101037.81;5048672;28;20133;-78
2022/06/30 03:42:36;;;;;;;5.05;3.95;;;;;;;28.25;41.92;101034.25;5047478;28;20156;-78
2022/06/30 03:45:01;;;;;;;4.40;3.80;;;;;;;28.26;42.09;101030.63;5048323;28;20483;-78
2022/06/30 03:47:28;;;;;;;5.50;3.80;;;;;;;28.23;42.16;101034.38;5049088;28;20487;-78
2022/06/30 03:49:53;;;;;;;4.57;3.72;;;;;;;28.22;42.21;101026.41;5047311;28;20037;-78
2022/06/30 03:52:19;;;;;;;4.57;3.70;;;;;;;28.22;42.23;101021.91;5048587;28;20028;-78
2022/06/30 03:54:44;;;;;;;4.35;3.58;;;;;;;28.24;41.76;101028.03;5048651;28;20036;-78
2022/06/30 03:57:09;;;;;;;3.90;3.47;;;;;;;28.21;42.23;101030.91;5047349;28;20032;-78
2022/06/30 03:59:36;;;;;;;4.95;3.78;;;;;;;28.24;42.11;101022.66;5047766;28;20035;-78
2022/06/30 04:02:03;;;;;;;5.03;3.60;;;;;;;28.21;41.99;101025.53;5047037;28;20029;-78
2022/06/30 04:04:28;;;;;;;4.53;3.47;;;;;;;28.23;41.93;101030.81;5048683;28;20035;-77
2022/06/30 04:06:53;;;;;;;4.30;3.50;;;;;;;28.27;41.95;101034.19;5048086;28;20029;-78
2022/06/30 04:09:19;;;;;;;3.80;3.40;;;;;;;28.24;42.23;101032.53;5045587;28;20108;-78
2022/06/30 04:11:44;;;;;;;4.55;3.67;;;;;;;28.23;42.14;101038.88;5048341;28;20037;-77
2022/06/30 04:14:10;;;;;;;4.95;3.88;;;;;;;28.25;42.24;101039.63;5047988;28;20044;-78
2022/06/30 04:16:35;;;;;;;4.78;3.63;;;;;;;28.25;42.09;101036.94;5048793;28;20055;-78
2022/06/30 04:19:00;;;;;;;4.22;3.63;;;;;;;28.25;41.80;101040.50;5048356;28;20029;-78
2022/06/30 04:21:26;;;;;;;3.85;3.33;;;;;;;28.24;42.11;101037.88;5047705;28;20029;-77
2022/06/30 04:23:51;;;;;;;4.75;3.40;;;;;;;28.24;41.83;101037.88;5047086;28;20459;-78
2022/06/30 04:26:16;;;;;;;4.00;3.20;;;;;;;28.23;42.03;101036.19;5048290;28;20049;-78
2022/06/30 04:28:42;;;;;;;4.22;3.38;;;;;;;28.23;42.21;101034.38;5046982;28;20041;-78
2022/06/30 04:33:51;;;;;;;4.55;3.40;;;;;;;28.22;42.05;101029.97;5048633;28;20086;-79
2022/06/30 04:36:16;;;;;;;3.67;3.25;;;;;;;28.24;41.74;101028.03;5047668;28;20030;-78
2022/06/30 04:38:42;;;;;;;4.55;3.45;;;;;;;28.22;41.77;101024.59;5048234;28;20108;-78
2022/06/30 04:41:25;;;;;;;4.22;3.47;;;;;;;28.22;41.98;101018.38;5047023;28;20417;-79
2022/06/30 04:43:55;;;;;;;3.83;3.30;;;;;;;28.21;42.10;101020.19;5046564;28;20052;-78
2022/06/30 04:46:21;;;;;;;3.85;3.00;;;;;;;28.21;41.83;101013.94;5047495;28;20049;-77
2022/06/30 04:48:47;;;;;;;4.20;3.20;;;;;;;28.20;41.74;101007.72;5047835;28;20036;-77
2022/06/30 04:51:13;;;;;;;3.75;3.17;;;;;;;28.22;42.14;101007.66;5048038;28;20021;-77
2022/06/30 04:53:40;;;;;;;4.18;3.13;;;;;;;28.22;41.95;101010.31;5047953;28;20609;-78
2022/06/30 04:56:06;;;;;;;3.97;3.22;;;;;;;28.22;42.00;101008.50;5044241;28;20044;-77
2022/06/30 04:58:31;;;;;;;4.07;3.40;;;;;;;28.21;42.08;101001.41;5047252;28;20038;-77
2022/06/30 05:00:56;;;;;;;3.47;3.05;;;;;;;28.22;41.75;100996.91;5046565;28;20115;-76
2022/06/30 05:03:22;;;;;;;4.00;3.40;;;;;;;28.21;41.91;101001.41;5048191;28;20044;-77
2022/06/30 05:05:47;;;;;;;3.90;3.17;;;;;;;28.21;41.84;100989.81;5047850;28;20119;-76
2022/06/30 05:08:12;;;;;;;4.35;3.33;;;;;;;28.22;42.01;100996.91;5044352;28;20057;-77
2022/06/30 05:10:38;;;;;;;4.68;3.35;;;;;;;28.28;41.75;101001.06;5047595;28;20483;-77
2022/06/30 05:13:05;;;;;;;3.80;3.20;;;;;;;28.27;41.60;100992.16;5047355;28;20530;-77
2022/06/30 05:15:31;;;;;;;4.30;3.25;;;;;;;28.27;41.77;101000.19;5046817;28;20359;-77
2022/06/30 05:17:56;;;;;;;4.03;3.25;;;;;;;28.29;41.37;100997.44;5046537;28;20029;-77
2022/06/30 05:20:21;;;;;;;3.47;3.10;;;;;;;28.31;41.88;101000.88;5046356;28;20037;-77
2022/06/30 05:22:47;;;;;;;3.38;3.08;;;;;;;28.33;41.52;100999.84;5049740;28;20110;-77
2022/06/30 05:27:56;;;;;;;4.40;3.35;;;;;;;28.35;41.49;100994.38;5050660;28;20052;-77
2022/06/30 05:30:21;;;;;;;4.60;3.22;;;;;;;28.36;41.37;100994.28;5051517;28;20661;-77
2022/06/30 05:32:47;;;;;;;3.83;3.00;;;;;;;28.35;41.45;100989.91;5049424;28;20025;-77
2022/06/30 05:35:12;;;;;;;4.20;3.15;;;;;;;28.34;41.71;100988.16;5051522;28;20053;-77
2022/06/30 05:37:38;;;;;;;4.60;2.95;;;;;;;28.35;41.74;100987.22;5051663;28;20029;-77
2022/06/30 05:40:05;;;;;;;4.55;3.05;;;;;;;28.40;41.44;100994.97;5051344;28;20037;-77
2022/06/30 05:42:30;;;;;;;4.43;3.33;;;;;;;28.38;41.45;100987.00;5050572;28;20057;-77
2022/06/30 05:44:56;;;;;;;4.15;2.97;;;;;;;28.39;41.24;100988.75;5050807;28;20106;-77
2022/06/30 05:47:21;;;;;;;3.78;3.13;;;;;;;28.40;41.23;100990.47;5033435;28;20033;-77
2022/06/30 05:49:46;;;;;;;3.38;3.03;;;;;;;28.41;41.55;100986.84;5050772;28;20060;-77
2022/06/30 05:52:12;;;;;;;4.15;3.25;;;;;;;28.45;41.52;100985.72;5049772;28;20036;-77
2022/06/30 05:54:37;;;;;;;4.82;3.40;;;;;;;28.52;40.88;100978.16;5049151;28;20076;-77
2022/06/30 05:57:03;;;;;;;3.72;3.10;;;;;;;28.54;41.37;100979.81;5049269;28;20374;-76
2022/06/30 05:59:30;;;;;;;4.47;3.05;;;;;;;28.58;41.16;100984.03;5050737;28;20029;-77
2022/06/30 06:01:56;;;;;;;3.70;3.30;;;;;;;28.61;40.97;100988.31;5050660;28;20033;-77
2022/06/30 06:04:21;;;;;;;3.55;3.22;;;;;;;28.64;40.92;100978.28;5050744;28;20078;-77
2022/06/30 06:06:46;;;;;;;3.38;2.97;;;;;;;28.69;41.08;100983.38;5049213;28;20170;-77
2022/06/30 06:09:12;;;;;;;3.30;3.00;;;;;;;30.66;37.40;100988.66;5049030;28;20025;-77
2022/06/30 06:11:37;;;;;;;3.90;3.40;;;;;;;33.47;32.12;100983.84;5049502;28;20043;-77
2022/06/30 06:14:02;;;;;;;3.42;3.10;;;;;;;32.58;32.93;100997.16;5049318;28;20457;-77
2022/06/30 06:16:28;;;;;;;3.58;2.75;;;;;;;30.22;37.71;100988.91;5048844;28;20116;-76
2022/06/30 06:18:53;;;;;;;3.78;3.10;;;;;;;29.37;39.51;101002.50;5050201;28;20056;-77
2022/06/30 06:21:19;;;;;;;3.75;3.05;;;;;;;29.07;40.43;100999.00;5038783;28;20044;-77
2022/06/30 06:23:44;;;;;;;3.78;3.00;;;;;;;28.96;40.70;101005.03;5049196;28;20078;-77
2022/06/30 06:26:09;;;;;;;3.75;2.90;;;;;;;28.90;40.47;100998.22;5049362;28;20618;-77
2022/06/30 06:31:19;;;;;;;5.20;2.88;;;;;;;28.92;40.66;101001.66;5050268;28;20079;-77
2022/06/30 06:33:46;;;;;;;3.70;2.80;;;;;;;28.93;40.86;101007.91;5049218;28;20033;-76
2022/06/30 06:36:12;;;;;;;6.00;3.13;;;;;;;28.91;40.79;101012.50;5049715;28;20363;-76
2022/06/30 06:38:37;;;;;;;3.63;3.10;;;;;;;28.93;41.25;101006.06;5048864;28;20033;-77
2022/06/30 06:41:05;;;;;;;3.85;3.08;;;;;;;28.94;41.22;100998.91;5048575;28;20021;-77
2022/06/30 06:43:31;;;;;;;3.55;3.00;;;;;;;28.94;41.10;101005.13;5049872;28;20083;-77
2022/06/30 06:45:56;;;;;;;4.22;2.97;;;;;;;28.96;41.39;101002.34;5050226;28;20429;-74
2022/06/30 06:48:22;;;;;;;3.58;2.90;;;;;;;28.94;41.42;101006.94;5050668;28;20104;-79
2022/06/30 06:50:47;;;;;;;3.88;2.90;;;;;;;28.97;41.47;101007.59;5049677;28;20025;-78
2022/06/30 06:53:13;;;;;;;3.30;2.80;;;;;;;29.00;41.49;101010.13;5050410;28;20033;-78
2022/06/30 06:55:38;;;;;;;4.88;2.75;;;;;;;29.00;41.63;101012.81;5048847;28;20648;-80
2022/06/30 06:58:05;;;;;;;3.63;3.00;;;;;;;29.02;41.63;101005.53;5048723;28;20586;-75
2022/06/30 07:00:31;;;;;;;4.00;3.00;;;;;;;29.01;41.97;101005.63;5049368;28;20037;-70
2022/06/30 07:02:56;;;;;;;3.15;2.70;;;;;;;29.04;42.14;101016.16;5049082;28;20033;-74
2022/06/30 07:05:22;;;;;;;3.72;3.10;;;;;;;29.06;42.22;101019.63;5051619;28;20026;-67
2022/06/30 07:07:59;;;;;;;4.70;2.92;;;;;;;29.16;42.60;101015.41;5054759;28;20037;-69
2022/06/30 07:10:25;;;;;;;4.57;2.90;;;;;;;29.26;42.31;101021.09;5050998;28;20096;-70
2022/06/30 07:12:50;;;;;;;4.85;3.00;;;;;;;29.31;42.16;101018.97;5044481;28;20186;-74
2022/06/30 07:15:16;;;;;;;5.63;3.03;;;;;;;29.37;42.26;101026.69;5050835;28;20021;-69
2022/06/30 07:17:41;;;;;;;5.63;2.90;;;;;;;29.42;42.65;101024.56;5049793;28;20064;-70
2022/06/30 07:20:07;;;;;;;6.07;2.80;;;;;;;29.47;41.92;101029.63;5048948;28;20364;-70
2022/06/30 07:22:33;;;;;;;6.55;2.85;;;;;;;29.51;42.12;101032.06;5033058;28;20517;-71
2022/06/30 07:24:58;;;;;;;6.18;2.90;;;;;;;29.53;42.40;101027.44;5052564;28;20021;-71
2022/06/30 07:27:24;;;;;;;7.53;3.10;;;;;;;29.64;42.74;101032.16;5052777;28;20512;-72
2022/06/30 07:29:49;;;;;;;7.05;2.70;;;;;;;29.68;43.08;101034.53;5051978;28;20037;-70
2022/06/30 07:32:14;;;;;;;4.38;3.00;;;;;;;29.62;42.83;101026.88;5052870;28;20036;-70
2022/06/30 07:34:40;;;;;;;4.00;2.90;;;;;;;29.77;42.93;101035.75;5052826;28;20029;-72
2022/06/30 07:37:05;;;;;;;8.02;3.20;;;;;;;29.72;42.74;101033.38;5052478;28;20047;-73
2022/06/30 07:39:30;;;;;;;5.22;2.90;;;;;;;29.82;42.56;101037.22;5048594;28;20043;-68
2022/06/30 07:41:56;;;;;;;5.43;2.88;;;;;;;29.81;42.36;101040.88;5046657;28;20429;-69
2022/06/30 07:44:21;;;;;;;4.07;2.80;;;;;;;29.85;42.58;101038.81;5048105;28;20063;-70
2022/06/30 07:46:46;;;;;;;8.05;3.08;;;;;;;29.91;42.50;101045.63;5048709;28;20060;-69
2022/06/30 07:49:12;;;;;;;7.50;3.17;;;;;;;29.88;42.17;101035.97;5048252;28;20024;-69
2022/06/30 07:51:37;;;;;;;6.93;3.33;;;;;;;29.89;42.11;101039.50;5048388;28;20060;-69
2022/06/30 07:54:03;;;;;;;6.20;3.40;;;;;;;29.89;42.53;101034.97;5046404;28;20048;-71
2022/06/30 07:56:30;;;;;;;10.70;3.65;;;;;;;29.94;42.46;101024.84;5043358;28;20159;-70
2022/06/30 07:58:56;;;;;;;6.45;3.25;;;;;;;30.08;42.22;101023.91;5045288;28;20514;-71
2022/06/30 08:01:21;;;;;;;8.13;3.50;;;;;;;30.06;41.90;101024.03;5044727;28;20024;-70
2022/06/30 08:03:47;;;;;;;7.38;3.75;;;;;;;30.15;41.65;101019.88;5046922;28;20039;-70
2022/06/30 08:06:12;;;;;;;7.35;3.60;;;;;;;30.20;41.65;101023.97;5044087;28;20503;-71
2022/06/30 08:08:38;;;;;;;7.82;3.90;;;;;;;30.22;41.25;101021.19;5046371;28;20037;-70
2022/06/30 08:11:03;;;;;;;7.72;3.88;;;;;;;30.21;41.28;101025.72;5046284;28;20033;-71
2022/06/30 08:13:29;;;;;;;6.57;3.90;;;;;;;30.23;41.55;101028.31;5046425;28;20028;-70
2022/06/30 08:15:54;;;;;;;8.18;4.18;;;;;;;30.24;41.17;101021.97;5048151;28;20060;-70
2022/06/30 08:18:20;;;;;;;8.20;4.88;;;;;;;30.25;41.55;101023.69;5046789;28;20112;-70
2022/06/30 08:20:45;;;;;;;10.00;5.28;;;;;;;30.24;41.24;101025.53;5046546;28;20124;-70
2022/06/30 08:23:11;;;;;;;6.55;4.85;;;;;;;30.27;41.18;101020.88;5048704;28;20037;-70
2022/06/30 08:25:36;;;;;;;8.00;5.00;;;;;;;30.31;41.12;101012.53;5045547;28;20079;-70
2022/06/30 08:28:04;;;;;;;7.35;5.25;;;;;;;30.35;41.23;101013.19;5046437;28;20549;-70
2022/06/30 08:30:29;;;;;;;6.22;4.80;;;;;;;30.25;40.94;101023.69;5046233;28;20029;-71
2022/06/30 08:32:55;;;;;;;31.25;6.07;;;;;;;30.00;42.08;101010.13;5051064;28;20036;-71
2022/06/30 08:35:20;;;;;;;7.40;5.32;;;;;;;30.23;41.28;101014.84;5052398;28;20037;-71
2022/06/30 08:37:45;;;;;;;11.05;5.90;;;;;;;30.27;41.62;101015.50;5051478;28;20044;-70
2022/06/30 08:42:56;;;;;;;14.80;6.40;;;;;;;30.27;42.08;101016.38;5049916;28;20071;-68
2022/06/30 08:45:24;;;;;;;9.15;6.13;;;;;;;30.27;41.87;101023.56;5051774;28;20033;-67
2022/06/30 08:47:49;;;;;;;12.23;6.50;;;;;;;30.22;41.70;101027.44;5051753;28;20029;-68
2022/06/30 08:50:17;;;;;;;9.43;6.50;;;;;;;30.32;41.58;101022.31;5052056;28;20021;-68
2022/06/30 08:52:55;;;;;;;13.43;6.65;;;;;;;30.35;41.96;101024.81;5051254;28;20053;-67
2022/06/30 08:55:25;;;;;;;9.43;6.03;;;;;;;30.38;41.82;101029.97;5050602;28;20032;-68
2022/06/30 08:57:55;;;;;;;7.85;6.40;;;;;;;30.31;41.58;101034.06;5048053;28;20108;-69
2022/06/30 09:00:21;;;;;;;7.72;6.25;;;;;;;30.38;42.11;101040.72;5048002;28;20040;-69
2022/06/30 09:02:46;;;;;;;9.55;6.60;;;;;;;30.21;42.38;101035.59;5045530;28;20060;-69
2022/06/30 09:05:13;;;;;;;8.48;6.10;;;;;;;30.25;42.30;101037.97;5055135;28;20021;-68
2022/06/30 09:07:38;;;;;;;8.60;6.68;;;;;;;30.48;41.68;101043.69;5055704;28;20463;-73
2022/06/30 09:10:05;;;;;;;9.95;7.18;;;;;;;30.54;41.28;101040.63;5036297;28;20025;-76
2022/06/30 09:12:31;;;;;;;13.45;7.40;;;;;;;30.55;42.15;101040.53;5053535;28;20085;-75
2022/06/30 09:14:56;;;;;;;11.73;7.10;;;;;;;30.49;42.10;101040.94;5052527;28;20460;-72
2022/06/30 09:17:24;;;;;;;8.13;6.60;;;;;;;30.59;41.99;101036.66;5053004;28;20039;-70
2022/06/30 09:19:54;;;;;;;8.73;7.00;;;;;;;30.57;41.59;101040.38;5050780;28;20033;-70
2022/06/30 09:22:22;;;;;;;8.70;6.80;;;;;;;30.64;41.43;101042.56;5049022;28;20040;-70
2022/06/30 09:24:54;;;;;;;8.52;7.10;;;;;;;30.72;41.58;101036.69;5048454;28;20029;-73
2022/06/30 09:27:21;;;;;;;8.40;6.95;;;;;;;30.72;41.56;101046.56;5049913;28;20061;-72
2022/06/30 09:29:55;;;;;;;8.50;6.78;;;;;;;30.78;41.42;101043.47;5052388;28;20118;-69
2022/06/30 09:32:21;;;;;;;10.93;6.95;;;;;;;30.78;41.90;101046.16;5051713;28;20075;-72
2022/06/30 09:34:52;;;;;;;11.15;7.97;;;;;;;30.87;41.20;101046.38;5051099;28;20486;-72
2022/06/30 09:37:22;;;;;;;9.35;7.78;;;;;;;30.96;41.11;101044.91;5048273;28;20048;-70
2022/06/30 09:39:51;;;;;;;11.52;7.85;;;;;;;30.92;41.03;101043.41;5053921;28;20037;-74
2022/06/30 09:42:39;;;;;;;12.38;8.00;;;;;;;30.99;40.97;101045.53;5053752;28;20077;-70
2022/06/30 09:45:06;;;;;;;11.30;8.57;;;;;;;31.10;40.71;101039.47;5053627;28;20147;-70
2022/06/30 09:47:32;;;;;;;10.13;8.50;;;;;;;31.08;40.75;101037.84;5051779;28;20050;-76
2022/06/30 09:50:02;;;;;;;12.48;8.30;;;;;;;31.11;40.65;101034.94;5051100;28;20124;-67
2022/06/30 09:52:28;;;;;;;13.10;8.85;;;;;;;31.11;40.88;101032.25;5053893;28;20035;-72
2022/06/30 09:55:00;;;;;;;9.73;8.25;;;;;;;31.18;40.51;101023.63;5049937;28;20455;-72
2022/06/30 09:57:31;;;;;;;12.35;8.82;;;;;;;31.20;40.82;101037.84;5052042;28;20024;-69
2022/06/30 10:00:17;;;;;;;12.35;9.02;;;;;;;31.18;41.19;101031.69;5052618;28;20024;-71
2022/06/30 10:02:49;;;;;;;12.52;8.98;;;;;;;31.29;41.05;101033.66;5036411;28;20041;-70
2022/06/30 10:05:17;;;;;;;11.50;8.27;;;;;;;31.26;40.75;101032.03;5053200;28;20021;-71
2022/06/30 10:07:43;;;;;;;12.57;9.20;;;;;;;31.19;41.32;101032.56;5053422;28;20112;-69
2022/06/30 10:10:11;;;;;;;12.85;8.70;;;;;;;31.22;40.83;101035.91;5052545;28;20673;-72
2022/06/30 10:12:40;;;;;;;10.90;8.48;;;;;;;31.27;41.12;101028.38;5052002;28;20040;-74
2022/06/30 10:15:08;;;;;;;10.95;8.85;;;;;;;31.25;41.29;101030.31;5049427;28;20049;-70
2022/06/30 10:17:36;;;;;;;10.70;8.63;;;;;;;31.35;41.17;101025.97;5054037;28;20032;-70
2022/06/30 10:20:04;;;;;;;10.02;8.13;;;;;;;31.34;40.92;101026.09;5054592;28;20075;-71
2022/06/30 10:22:30;;;;;;;11.95;8.48;;;;;;;31.33;41.17;101035.16;5052909;28;20021;-73
2022/06/30 10:24:57;;;;;;;13.70;8.80;;;;;;;31.33;40.84;101027.94;5053941;28;20045;-72
2022/06/30 10:27:24;;;;;;;11.32;8.60;;;;;;;31.32;41.19;101022.66;5052124;28;20387;-68
2022/06/30 10:29:50;;;;;;;10.05;8.60;;;;;;;31.33;41.02;101022.53;5054029;28;20418;-69
2022/06/30 10:32:20;;;;;;;10.82;8.77;;;;;;;31.32;40.92;101028.03;5054385;28;20036;-69
2022/06/30 10:34:55;;;;;;;11.02;8.43;;;;;;;31.26;40.93;101025.78;5052748;28;20028;-70
2022/06/30 10:37:29;;;;;;;10.10;8.48;;;;;;;31.10;41.70;101022.44;5050025;28;20028;-71
2022/06/30 10:40:09;;;;;;;13.32;8.30;;;;;;;31.16;42.60;101016.63;5044918;28;20030;-64
2022/06/30 10:42:42;;;;;;;9.82;8.18;;;;;;;31.23;41.00;101021.44;5049023;28;20041;-65
2022/06/30 10:45:26;;;;;;;10.82;7.90;;;;;;;31.24;41.02;101017.78;5051351;28;20036;-64
2022/06/30 10:48:05;;;;;;;12.82;8.25;;;;;;;31.11;41.84;101022.31;5049896;28;20025;-73
2022/06/30 10:50:34;;;;;;;11.60;8.20;;;;;;;31.08;41.05;101021.69;5050761;28;20037;-75
2022/06/30 10:53:01;;;;;;;13.13;8.35;;;;;;;31.16;41.11;101019.31;5052882;28;20040;-73
2022/06/30 10:55:27;;;;;;;9.18;8.00;;;;;;;31.17;40.89;101011.09;5052438;28;20104;-74
2022/06/30 10:58:04;;;;;;;11.02;8.15;;;;;;;31.17;40.81;101021.88;5053080;28;20059;-71
2022/06/30 11:00:48;;;;;;;9.35;8.10;;;;;;;31.22;40.56;101021.59;5050329;28;20040;-73
2022/06/30 11:05:58;;;;;;;9.52;7.78;;;;;;;31.39;40.30;101021.25;5053459;28;20047;-73
2022/06/30 11:08:36;;;;;;;8.90;8.00;;;;;;;31.29;40.54;101020.19;5049451;28;20052;-72
2022/06/30 11:11:20;;;;;;;16.85;8.30;;;;;;;31.36;40.90;101021.44;5049176;28;20044;-71
2022/06/30 11:13:46;;;;;;;11.23;7.80;;;;;;;31.31;40.45;101018.22;5050902;28;20032;-70
2022/06/30 11:16:15;;;;;;;9.93;7.95;;;;;;;31.28;40.50;101016.63;5050695;28;20032;-72
2022/06/30 11:18:41;;;;;;;9.25;7.90;;;;;;;31.38;40.13;101016.81;5049698;28;21119;-73
2022/06/30 11:21:07;;;;;;;13.07;8.02;;;;;;;31.47;40.98;101018.88;5053510;28;20139;-65
2022/06/30 11:23:40;;;;;;;11.20;7.90;;;;;;;31.51;40.20;101012.28;5054697;28;20118;-65
2022/06/30 11:28:55;;;;;;;9.10;7.53;;;;;;;31.58;39.39;100997.41;5054295;28;20047;-65
2022/06/30 11:31:29;;;;;;;11.40;7.43;;;;;;;31.56;39.47;100991.25;5053789;28;20116;-68
2022/06/30 11:33:58;;;;;;;11.05;7.47;;;;;;;31.55;40.00;101000.31;5051714;28;20029;-66
2022/06/30 11:36:24;;;;;;;12.30;7.28;;;;;;;31.54;40.21;101000.41;5050979;28;20063;-66
2022/06/30 11:39:02;;;;;;;12.60;7.20;;;;;;;31.60;39.02;100995.47;5050200;28;20056;-64
2022/06/30 11:44:15;;;;;;;11.52;7.00;;;;;;;31.68;39.17;100989.53;5031977;28;20128;-65